sensor_id;sensor_type;location;lat;lon;timestamp;P1;durP1;ratioP1;P2;durP2;ratioP2
71959;SDS011;59832;51.146;14.024;2023-10-08T00:00:27;13.15;;;5.55;;
71959;SDS011;59832;51.146;14.024;2023-10-08T00:03:13;10.10;;;5.72;;
71959;SDS011;59832;51.146;14.024;2023-10-08T00:05:41;11.48;;;5.55;;
71959;SDS011;59832;51.146;14.024;2023-10-08T00:08:08;6.80;;;5.70;;
71959;SDS011;59832;51.146;14.024;2023-10-08T00:10:38;11.93;;;6.32;;
71959;SDS011;59832;51.146;14.024;2023-10-08T00:13:10;11.05;;;6.63;;
71959;SDS011;59832;51.146;14.024;2023-10-08T00:15:42;10.07;;;6.03;;
71959;SDS011;59832;51.146;14.024;2023-10-08T00:18:16;12.63;;;6.72;;
71959;SDS011;59832;51.146;14.024;2023-10-08T00:20:44;12.80;;;6.80;;
71959;SDS011;59832;51.146;14.024;2023-10-08T00:23:29;10.93;;;6.90;;
71959;SDS011;59832;51.146;14.024;2023-10-08T00:25:56;10.13;;;7.55;;
71959;SDS011;59832;51.146;14.024;2023-10-08T00:28:24;10.32;;;7.20;;
71959;SDS011;59832;51.146;14.024;2023-10-08T00:30:53;12.70;;;7.57;;
71959;SDS011;59832;51.146;14.024;2023-10-08T00:33:20;12.30;;;7.63;;
71959;SDS011;59832;51.146;14.024;2023-10-08T00:35:47;11.53;;;7.90;;
71959;SDS011;59832;51.146;14.024;2023-10-08T00:38:13;11.90;;;8.40;;
71959;SDS011;59832;51.146;14.024;2023-10-08T00:40:47;16.30;;;8.60;;
71959;SDS011;59832;51.146;14.024;2023-10-08T00:43:35;16.73;;;9.48;;
71959;SDS011;59832;51.146;14.024;2023-10-08T00:46:02;14.05;;;9.57;;
71959;SDS011;59832;51.146;14.024;2023-10-08T00:48:30;14.13;;;10.38;;
71959;SDS011;59832;51.146;14.024;2023-10-08T00:51:02;15.95;;;10.88;;
71959;SDS011;59832;51.146;14.024;2023-10-08T00:54:09;12.38;;;10.65;;
71959;SDS011;59832;51.146;14.024;2023-10-08T00:56:36;13.38;;;11.10;;
71959;SDS011;59832;51.146;14.024;2023-10-08T00:59:35;16.27;;;11.15;;
71959;SDS011;59832;51.146;14.024;2023-10-08T01:02:11;12.93;;;11.60;;
71959;SDS011;59832;51.146;14.024;2023-10-08T01:04:46;17.27;;;11.77;;
71959;SDS011;59832;51.146;14.024;2023-10-08T01:07:13;15.17;;;12.23;;
71959;SDS011;59832;51.146;14.024;2023-10-08T01:09:44;13.40;;;11.50;;
71959;SDS011;59832;51.146;14.024;2023-10-08T01:14:54;16.65;;;11.05;;
71959;SDS011;59832;51.146;14.024;2023-10-08T01:17:21;1.52;;;1.42;;
71959;SDS011;59832;51.146;14.024;2023-10-08T01:19:53;0.52;;;0.52;;
71959;SDS011;59832;51.146;14.024;2023-10-08T01:22:24;0.40;;;0.38;;
71959;SDS011;59832;51.146;14.024;2023-10-08T01:24:54;0.10;;;0.10;;
71959;SDS011;59832;51.146;14.024;2023-10-08T01:27:21;0.10;;;0.10;;
71959;SDS011;59832;51.146;14.024;2023-10-08T01:29:50;1.45;;;0.10;;
71959;SDS011;59832;51.146;14.024;2023-10-08T01:32:19;0.10;;;0.10;;
71959;SDS011;59832;51.146;14.024;2023-10-08T01:34:47;0.60;;;0.10;;
71959;SDS011;59832;51.146;14.024;2023-10-08T01:37:14;0.10;;;0.10;;
71959;SDS011;59832;51.146;14.024;2023-10-08T01:39:45;0.03;;;0.03;;
71959;SDS011;59832;51.146;14.024;2023-10-08T01:42:12;0.10;;;0.10;;
71959;SDS011;59832;51.146;14.024;2023-10-08T01:44:49;0.05;;;0.05;;
71959;SDS011;59832;51.146;14.024;2023-10-08T01:47:21;0.10;;;0.10;;
71959;SDS011;59832;51.146;14.024;2023-10-08T01:49:51;0.25;;;0.10;;
71959;SDS011;59832;51.146;14.024;2023-10-08T01:52:27;0.28;;;0.20;;
71959;SDS011;59832;51.146;14.024;2023-10-08T01:54:53;0.15;;;0.10;;
71959;SDS011;59832;51.146;14.024;2023-10-08T01:57:20;0.20;;;0.20;;
71959;SDS011;59832;51.146;14.024;2023-10-08T01:59:46;0.28;;;0.28;;
71959;SDS011;59832;51.146;14.024;2023-10-08T02:02:13;0.10;;;0.10;;
71959;SDS011;59832;51.146;14.024;2023-10-08T02:04:41;0.10;;;0.10;;
71959;SDS011;59832;51.146;14.024;2023-10-08T02:07:11;0.20;;;0.20;;
71959;SDS011;59832;51.146;14.024;2023-10-08T02:09:40;0.40;;;0.20;;
71959;SDS011;59832;51.146;14.024;2023-10-08T02:12:07;0.20;;;0.20;;
71959;SDS011;59832;51.146;14.024;2023-10-08T02:14:34;0.10;;;0.10;;
71959;SDS011;59832;51.146;14.024;2023-10-08T02:17:02;0.10;;;0.10;;
71959;SDS011;59832;51.146;14.024;2023-10-08T02:19:32;0.30;;;0.20;;
71959;SDS011;59832;51.146;14.024;2023-10-08T02:22:01;0.10;;;0.10;;
71959;SDS011;59832;51.146;14.024;2023-10-08T02:24:28;0.00;;;0.00;;
71959;SDS011;59832;51.146;14.024;2023-10-08T02:26:56;0.00;;;0.00;;
71959;SDS011;59832;51.146;14.024;2023-10-08T02:29:25;0.00;;;0.00;;
71959;SDS011;59832;51.146;14.024;2023-10-08T02:31:52;0.00;;;0.00;;
71959;SDS011;59832;51.146;14.024;2023-10-08T02:34:20;0.00;;;0.00;;
71959;SDS011;59832;51.146;14.024;2023-10-08T02:36:47;0.37;;;0.00;;
71959;SDS011;59832;51.146;14.024;2023-10-08T02:39:14;0.00;;;0.00;;
71959;SDS011;59832;51.146;14.024;2023-10-08T02:41:48;0.17;;;0.00;;
71959;SDS011;59832;51.146;14.024;2023-10-08T02:44:16;0.00;;;0.00;;
71959;SDS011;59832;51.146;14.024;2023-10-08T02:46:44;0.05;;;0.05;;
71959;SDS011;59832;51.146;14.024;2023-10-08T02:49:14;0.00;;;0.00;;
71959;SDS011;59832;51.146;14.024;2023-10-08T02:51:46;0.00;;;0.00;;
71959;SDS011;59832;51.146;14.024;2023-10-08T02:54:17;0.10;;;0.10;;
71959;SDS011;59832;51.146;14.024;2023-10-08T02:56:48;0.00;;;0.00;;
71959;SDS011;59832;51.146;14.024;2023-10-08T02:59:18;0.00;;;0.00;;
71959;SDS011;59832;51.146;14.024;2023-10-08T03:01:49;0.10;;;0.00;;
71959;SDS011;59832;51.146;14.024;2023-10-08T03:04:22;0.00;;;0.00;;
71959;SDS011;59832;51.146;14.024;2023-10-08T03:06:49;0.00;;;0.00;;
71959;SDS011;59832;51.146;14.024;2023-10-08T03:09:16;0.10;;;0.10;;
71959;SDS011;59832;51.146;14.024;2023-10-08T03:11:47;0.00;;;0.00;;
71959;SDS011;59832;51.146;14.024;2023-10-08T03:14:15;0.08;;;0.00;;
71959;SDS011;59832;51.146;14.024;2023-10-08T03:16:51;0.68;;;0.20;;
71959;SDS011;59832;51.146;14.024;2023-10-08T03:19:19;0.68;;;0.35;;
71959;SDS011;59832;51.146;14.024;2023-10-08T03:21:49;1.08;;;0.40;;
71959;SDS011;59832;51.146;14.024;2023-10-08T03:24:23;1.52;;;0.70;;
71959;SDS011;59832;51.146;14.024;2023-10-08T03:26:56;1.88;;;0.70;;
71959;SDS011;59832;51.146;14.024;2023-10-08T03:29:34;2.33;;;0.82;;
71959;SDS011;59832;51.146;14.024;2023-10-08T03:32:08;2.33;;;0.82;;
71959;SDS011;59832;51.146;14.024;2023-10-08T03:34:40;2.53;;;0.90;;
71959;SDS011;59832;51.146;14.024;2023-10-08T03:37:09;4.97;;;0.77;;
71959;SDS011;59832;51.146;14.024;2023-10-08T03:39:41;1.77;;;0.90;;
71959;SDS011;59832;51.146;14.024;2023-10-08T03:42:23;3.92;;;1.08;;
71959;SDS011;59832;51.146;14.024;2023-10-08T03:44:51;3.03;;;1.10;;
71959;SDS011;59832;51.146;14.024;2023-10-08T03:47:19;3.75;;;1.00;;
71959;SDS011;59832;51.146;14.024;2023-10-08T03:49:48;2.08;;;1.00;;
71959;SDS011;59832;51.146;14.024;2023-10-08T03:52:19;2.30;;;0.82;;
71959;SDS011;59832;51.146;14.024;2023-10-08T03:54:52;2.67;;;0.88;;
71959;SDS011;59832;51.146;14.024;2023-10-08T03:57:47;3.35;;;1.15;;
71959;SDS011;59832;51.146;14.024;2023-10-08T04:00:15;2.63;;;1.02;;
71959;SDS011;59832;51.146;14.024;2023-10-08T04:02:45;2.53;;;1.00;;
71959;SDS011;59832;51.146;14.024;2023-10-08T04:05:35;2.00;;;0.90;;
71959;SDS011;59832;51.146;14.024;2023-10-08T04:08:25;2.60;;;0.82;;
71959;SDS011;59832;51.146;14.024;2023-10-08T04:11:21;2.08;;;0.90;;
71959;SDS011;59832;51.146;14.024;2023-10-08T04:14:02;3.03;;;0.80;;
71959;SDS011;59832;51.146;14.024;2023-10-08T04:16:29;3.15;;;0.95;;
71959;SDS011;59832;51.146;14.024;2023-10-08T04:18:56;4.43;;;1.15;;
71959;SDS011;59832;51.146;14.024;2023-10-08T04:21:22;1.98;;;0.88;;
71959;SDS011;59832;51.146;14.024;2023-10-08T04:23:53;0.95;;;0.70;;
71959;SDS011;59832;51.146;14.024;2023-10-08T04:26:20;1.60;;;0.80;;
71959;SDS011;59832;51.146;14.024;2023-10-08T04:28:53;3.85;;;0.90;;
71959;SDS011;59832;51.146;14.024;2023-10-08T04:31:29;1.57;;;0.80;;
71959;SDS011;59832;51.146;14.024;2023-10-08T04:34:05;1.27;;;0.60;;
71959;SDS011;59832;51.146;14.024;2023-10-08T04:36:52;2.28;;;0.75;;
71959;SDS011;59832;51.146;14.024;2023-10-08T04:39:23;1.63;;;0.63;;
71959;SDS011;59832;51.146;14.024;2023-10-08T04:42:01;1.10;;;0.60;;
71959;SDS011;59832;51.146;14.024;2023-10-08T04:44:40;1.17;;;0.60;;
71959;SDS011;59832;51.146;14.024;2023-10-08T04:47:07;1.33;;;0.70;;
71959;SDS011;59832;51.146;14.024;2023-10-08T04:49:53;1.08;;;0.50;;
71959;SDS011;59832;51.146;14.024;2023-10-08T04:52:20;0.77;;;0.40;;
71959;SDS011;59832;51.146;14.024;2023-10-08T04:54:51;2.05;;;0.40;;
71959;SDS011;59832;51.146;14.024;2023-10-08T04:57:18;0.75;;;0.38;;
71959;SDS011;59832;51.146;14.024;2023-10-08T04:59:49;0.75;;;0.40;;
71959;SDS011;59832;51.146;14.024;2023-10-08T05:02:24;1.23;;;0.30;;
71959;SDS011;59832;51.146;14.024;2023-10-08T05:04:59;0.80;;;0.30;;
71959;SDS011;59832;51.146;14.024;2023-10-08T05:07:35;1.13;;;0.40;;
71959;SDS011;59832;51.146;14.024;2023-10-08T05:10:28;1.25;;;0.60;;
71959;SDS011;59832;51.146;14.024;2023-10-08T05:12:55;2.58;;;0.77;;
71959;SDS011;59832;51.146;14.024;2023-10-08T05:15:42;1.20;;;0.40;;
71959;SDS011;59832;51.146;14.024;2023-10-08T05:18:28;1.27;;;0.60;;
71959;SDS011;59832;51.146;14.024;2023-10-08T05:21:15;0.73;;;0.68;;
71959;SDS011;59832;51.146;14.024;2023-10-08T05:23:52;0.90;;;0.60;;
71959;SDS011;59832;51.146;14.024;2023-10-08T05:26:39;1.17;;;0.50;;
71959;SDS011;59832;51.146;14.024;2023-10-08T05:29:15;2.08;;;0.88;;
71959;SDS011;59832;51.146;14.024;2023-10-08T05:32:01;1.02;;;0.80;;
71959;SDS011;59832;51.146;14.024;2023-10-08T05:34:45;1.85;;;0.88;;
71959;SDS011;59832;51.146;14.024;2023-10-08T05:37:38;1.95;;;0.95;;
71959;SDS011;59832;51.146;14.024;2023-10-08T05:40:08;1.20;;;0.70;;
71959;SDS011;59832;51.146;14.024;2023-10-08T05:42:58;1.60;;;0.80;;
71959;SDS011;59832;51.146;14.024;2023-10-08T05:45:39;1.25;;;0.85;;
71959;SDS011;59832;51.146;14.024;2023-10-08T05:48:18;1.75;;;0.80;;
71959;SDS011;59832;51.146;14.024;2023-10-08T05:50:54;2.75;;;1.02;;
71959;SDS011;59832;51.146;14.024;2023-10-08T05:53:39;1.92;;;0.90;;
71959;SDS011;59832;51.146;14.024;2023-10-08T05:56:15;1.42;;;0.80;;
71959;SDS011;59832;51.146;14.024;2023-10-08T05:58:55;2.88;;;0.90;;
71959;SDS011;59832;51.146;14.024;2023-10-08T06:01:41;1.98;;;1.00;;
71959;SDS011;59832;51.146;14.024;2023-10-08T06:04:08;1.92;;;1.02;;
71959;SDS011;59832;51.146;14.024;2023-10-08T06:06:58;1.70;;;0.90;;
71959;SDS011;59832;51.146;14.024;2023-10-08T06:09:38;1.65;;;0.90;;
71959;SDS011;59832;51.146;14.024;2023-10-08T06:12:06;1.40;;;0.90;;
71959;SDS011;59832;51.146;14.024;2023-10-08T06:14:46;2.05;;;1.00;;
71959;SDS011;59832;51.146;14.024;2023-10-08T06:17:31;2.08;;;1.20;;
71959;SDS011;59832;51.146;14.024;2023-10-08T06:20:16;1.63;;;0.93;;
71959;SDS011;59832;51.146;14.024;2023-10-08T06:22:43;2.33;;;1.00;;
71959;SDS011;59832;51.146;14.024;2023-10-08T06:25:10;1.63;;;0.90;;
71959;SDS011;59832;51.146;14.024;2023-10-08T06:27:44;2.85;;;1.50;;
71959;SDS011;59832;51.146;14.024;2023-10-08T06:30:11;1.60;;;1.00;;
71959;SDS011;59832;51.146;14.024;2023-10-08T06:32:43;3.28;;;1.30;;
71959;SDS011;59832;51.146;14.024;2023-10-08T06:35:11;1.67;;;1.00;;
71959;SDS011;59832;51.146;14.024;2023-10-08T06:37:45;3.63;;;1.20;;
71959;SDS011;59832;51.146;14.024;2023-10-08T06:40:12;2.67;;;1.27;;
71959;SDS011;59832;51.146;14.024;2023-10-08T06:42:58;2.33;;;0.95;;
71959;SDS011;59832;51.146;14.024;2023-10-08T06:45:29;6.75;;;1.30;;
71959;SDS011;59832;51.146;14.024;2023-10-08T06:47:59;4.25;;;1.40;;
71959;SDS011;59832;51.146;14.024;2023-10-08T06:50:27;2.80;;;1.42;;
71959;SDS011;59832;51.146;14.024;2023-10-08T06:52:53;2.97;;;1.00;;
71959;SDS011;59832;51.146;14.024;2023-10-08T06:55:20;3.45;;;1.58;;
71959;SDS011;59832;51.146;14.024;2023-10-08T06:57:51;3.20;;;1.40;;
71959;SDS011;59832;51.146;14.024;2023-10-08T07:00:17;4.15;;;1.30;;
71959;SDS011;59832;51.146;14.024;2023-10-08T07:03:04;5.55;;;1.40;;
71959;SDS011;59832;51.146;14.024;2023-10-08T07:05:32;3.63;;;1.45;;
71959;SDS011;59832;51.146;14.024;2023-10-08T07:08:02;6.85;;;1.40;;
71959;SDS011;59832;51.146;14.024;2023-10-08T07:10:33;3.92;;;1.45;;
71959;SDS011;59832;51.146;14.024;2023-10-08T07:13:02;3.97;;;1.33;;
71959;SDS011;59832;51.146;14.024;2023-10-08T07:15:32;3.97;;;1.38;;
71959;SDS011;59832;51.146;14.024;2023-10-08T07:17:58;4.65;;;1.50;;
71959;SDS011;59832;51.146;14.024;2023-10-08T07:20:36;3.60;;;1.40;;
71959;SDS011;59832;51.146;14.024;2023-10-08T07:23:05;3.25;;;1.40;;
71959;SDS011;59832;51.146;14.024;2023-10-08T07:25:38;5.53;;;1.38;;
71959;SDS011;59832;51.146;14.024;2023-10-08T07:28:04;3.95;;;1.45;;
71959;SDS011;59832;51.146;14.024;2023-10-08T07:30:36;4.00;;;1.35;;
71959;SDS011;59832;51.146;14.024;2023-10-08T07:35:45;6.25;;;1.48;;
71959;SDS011;59832;51.146;14.024;2023-10-08T07:38:26;5.40;;;1.77;;
71959;SDS011;59832;51.146;14.024;2023-10-08T07:40:56;4.18;;;1.50;;
71959;SDS011;59832;51.146;14.024;2023-10-08T07:43:22;5.25;;;1.65;;
71959;SDS011;59832;51.146;14.024;2023-10-08T07:45:49;4.60;;;1.67;;
71959;SDS011;59832;51.146;14.024;2023-10-08T07:48:16;8.10;;;1.63;;
71959;SDS011;59832;51.146;14.024;2023-10-08T07:50:43;5.50;;;1.70;;
71959;SDS011;59832;51.146;14.024;2023-10-08T07:53:13;6.85;;;1.60;;
71959;SDS011;59832;51.146;14.024;2023-10-08T07:55:46;3.53;;;1.60;;
71959;SDS011;59832;51.146;14.024;2023-10-08T07:58:14;7.13;;;1.90;;
71959;SDS011;59832;51.146;14.024;2023-10-08T08:00:42;8.52;;;2.13;;
71959;SDS011;59832;51.146;14.024;2023-10-08T08:03:20;6.45;;;2.53;;
71959;SDS011;59832;51.146;14.024;2023-10-08T08:05:47;8.00;;;2.03;;
71959;SDS011;59832;51.146;14.024;2023-10-08T08:08:15;6.60;;;2.00;;
71959;SDS011;59832;51.146;14.024;2023-10-08T08:10:44;4.43;;;2.10;;
71959;SDS011;59832;51.146;14.024;2023-10-08T08:13:11;6.32;;;2.08;;
71959;SDS011;59832;51.146;14.024;2023-10-08T08:15:38;7.72;;;2.30;;
71959;SDS011;59832;51.146;14.024;2023-10-08T08:18:12;8.13;;;2.10;;
71959;SDS011;59832;51.146;14.024;2023-10-08T08:20:48;11.20;;;2.50;;
71959;SDS011;59832;51.146;14.024;2023-10-08T08:23:15;9.48;;;2.13;;
71959;SDS011;59832;51.146;14.024;2023-10-08T08:25:43;5.07;;;2.10;;
71959;SDS011;59832;51.146;14.024;2023-10-08T08:28:22;7.88;;;2.15;;
71959;SDS011;59832;51.146;14.024;2023-10-08T08:30:51;8.43;;;2.25;;
71959;SDS011;59832;51.146;14.024;2023-10-08T08:33:21;4.57;;;1.83;;
71959;SDS011;59832;51.146;14.024;2023-10-08T08:35:59;5.22;;;2.10;;
71959;SDS011;59832;51.146;14.024;2023-10-08T08:38:32;6.47;;;2.30;;
71959;SDS011;59832;51.146;14.024;2023-10-08T08:41:02;7.20;;;1.73;;
71959;SDS011;59832;51.146;14.024;2023-10-08T08:43:34;4.80;;;2.20;;
71959;SDS011;59832;51.146;14.024;2023-10-08T08:48:33;4.78;;;1.98;;
71959;SDS011;59832;51.146;14.024;2023-10-08T08:51:01;6.60;;;2.03;;
71959;SDS011;59832;51.146;14.024;2023-10-08T08:53:27;5.97;;;1.85;;
71959;SDS011;59832;51.146;14.024;2023-10-08T08:55:55;8.10;;;2.40;;
71959;SDS011;59832;51.146;14.024;2023-10-08T08:58:22;3.22;;;1.92;;
71959;SDS011;59832;51.146;14.024;2023-10-08T09:00:51;4.50;;;1.80;;
71959;SDS011;59832;51.146;14.024;2023-10-08T09:03:19;5.63;;;1.88;;
71959;SDS011;59832;51.146;14.024;2023-10-08T09:05:46;4.72;;;1.80;;
71959;SDS011;59832;51.146;14.024;2023-10-08T09:08:17;6.95;;;1.77;;
71959;SDS011;59832;51.146;14.024;2023-10-08T09:10:45;5.05;;;1.80;;
71959;SDS011;59832;51.146;14.024;2023-10-08T09:13:21;2.60;;;1.73;;
71959;SDS011;59832;51.146;14.024;2023-10-08T09:15:51;4.05;;;2.05;;
71959;SDS011;59832;51.146;14.024;2023-10-08T09:18:22;5.72;;;2.03;;
71959;SDS011;59832;51.146;14.024;2023-10-08T09:20:48;3.53;;;1.70;;
71959;SDS011;59832;51.146;14.024;2023-10-08T09:23:16;3.90;;;1.90;;
71959;SDS011;59832;51.146;14.024;2023-10-08T09:25:48;8.52;;;2.42;;
71959;SDS011;59832;51.146;14.024;2023-10-08T09:28:25;6.35;;;2.00;;
71959;SDS011;59832;51.146;14.024;2023-10-08T09:30:52;4.50;;;1.87;;
71959;SDS011;59832;51.146;14.024;2023-10-08T09:33:21;5.05;;;1.60;;
71959;SDS011;59832;51.146;14.024;2023-10-08T09:35:48;4.72;;;1.70;;
71959;SDS011;59832;51.146;14.024;2023-10-08T09:38:14;4.20;;;1.48;;
71959;SDS011;59832;51.146;14.024;2023-10-08T09:40:49;2.80;;;1.42;;
71959;SDS011;59832;51.146;14.024;2023-10-08T09:43:16;4.85;;;1.77;;
71959;SDS011;59832;51.146;14.024;2023-10-08T09:45:43;3.67;;;1.30;;
71959;SDS011;59832;51.146;14.024;2023-10-08T09:48:15;5.63;;;1.85;;
71959;SDS011;59832;51.146;14.024;2023-10-08T09:50:45;7.63;;;2.08;;
71959;SDS011;59832;51.146;14.024;2023-10-08T09:53:14;7.30;;;1.70;;
71959;SDS011;59832;51.146;14.024;2023-10-08T09:55:44;5.53;;;2.35;;
71959;SDS011;59832;51.146;14.024;2023-10-08T09:58:24;2.85;;;1.27;;
71959;SDS011;59832;51.146;14.024;2023-10-08T10:00:55;4.45;;;1.48;;
71959;SDS011;59832;51.146;14.024;2023-10-08T10:03:24;2.30;;;1.35;;
71959;SDS011;59832;51.146;14.024;2023-10-08T10:05:53;3.00;;;1.48;;
71959;SDS011;59832;51.146;14.024;2023-10-08T10:08:25;5.60;;;1.48;;
71959;SDS011;59832;51.146;14.024;2023-10-08T10:11:02;3.10;;;1.40;;
71959;SDS011;59832;51.146;14.024;2023-10-08T10:13:34;3.95;;;1.40;;
71959;SDS011;59832;51.146;14.024;2023-10-08T10:16:09;3.58;;;1.30;;
71959;SDS011;59832;51.146;14.024;2023-10-08T10:18:36;4.50;;;1.40;;
71959;SDS011;59832;51.146;14.024;2023-10-08T10:26:23;4.75;;;1.40;;
71959;SDS011;59832;51.146;14.024;2023-10-08T10:29:28;3.22;;;1.60;;
71959;SDS011;59832;51.146;14.024;2023-10-08T10:31:51;3.47;;;1.10;;
71959;SDS011;59832;51.146;14.024;2023-10-08T10:34:23;1.73;;;1.23;;
71959;SDS011;59832;51.146;14.024;2023-10-08T10:36:55;3.90;;;1.58;;
71959;SDS011;59832;51.146;14.024;2023-10-08T10:39:25;1.20;;;1.10;;
71959;SDS011;59832;51.146;14.024;2023-10-08T10:41:53;3.15;;;1.60;;
71959;SDS011;59832;51.146;14.024;2023-10-08T10:44:24;1.75;;;1.45;;
71959;SDS011;59832;51.146;14.024;2023-10-08T10:46:51;3.38;;;1.80;;
71959;SDS011;59832;51.146;14.024;2023-10-08T10:49:18;3.97;;;1.48;;
71959;SDS011;59832;51.146;14.024;2023-10-08T10:51:49;3.28;;;1.30;;
71959;SDS011;59832;51.146;14.024;2023-10-08T10:54:19;1.67;;;1.40;;
71959;SDS011;59832;51.146;14.024;2023-10-08T10:56:50;2.42;;;1.70;;
71959;SDS011;59832;51.146;14.024;2023-10-08T10:59:30;1.88;;;1.33;;
71959;SDS011;59832;51.146;14.024;2023-10-08T11:02:06;2.97;;;1.25;;
71959;SDS011;59832;51.146;14.024;2023-10-08T11:04:47;2.63;;;1.40;;
71959;SDS011;59832;51.146;14.024;2023-10-08T11:07:15;3.75;;;1.42;;
71959;SDS011;59832;51.146;14.024;2023-10-08T11:09:44;3.60;;;1.45;;
71959;SDS011;59832;51.146;14.024;2023-10-08T11:12:13;4.53;;;1.27;;
71959;SDS011;59832;51.146;14.024;2023-10-08T11:14:46;2.15;;;1.30;;
71959;SDS011;59832;51.146;14.024;2023-10-08T11:17:17;3.35;;;1.60;;
71959;SDS011;59832;51.146;14.024;2023-10-08T11:19:48;2.47;;;1.27;;
71959;SDS011;59832;51.146;14.024;2023-10-08T11:22:17;3.00;;;1.20;;
71959;SDS011;59832;51.146;14.024;2023-10-08T11:24:45;2.28;;;1.40;;
71959;SDS011;59832;51.146;14.024;2023-10-08T11:27:18;2.22;;;1.10;;
71959;SDS011;59832;51.146;14.024;2023-10-08T11:30:02;2.17;;;1.20;;
71959;SDS011;59832;51.146;14.024;2023-10-08T11:32:38;2.78;;;1.23;;
71959;SDS011;59832;51.146;14.024;2023-10-08T11:35:05;3.03;;;1.30;;
71959;SDS011;59832;51.146;14.024;2023-10-08T11:37:46;2.90;;;1.40;;
71959;SDS011;59832;51.146;14.024;2023-10-08T11:40:24;3.30;;;1.40;;
71959;SDS011;59832;51.146;14.024;2023-10-08T11:42:55;2.85;;;1.50;;
71959;SDS011;59832;51.146;14.024;2023-10-08T11:45:25;2.05;;;1.17;;
71959;SDS011;59832;51.146;14.024;2023-10-08T11:47:53;3.30;;;1.25;;
71959;SDS011;59832;51.146;14.024;2023-10-08T11:50:24;3.60;;;1.30;;
71959;SDS011;59832;51.146;14.024;2023-10-08T11:52:58;3.70;;;1.08;;
71959;SDS011;59832;51.146;14.024;2023-10-08T11:55:29;2.78;;;1.42;;
71959;SDS011;59832;51.146;14.024;2023-10-08T11:58:02;3.55;;;1.30;;
71959;SDS011;59832;51.146;14.024;2023-10-08T12:00:37;3.88;;;1.38;;
71959;SDS011;59832;51.146;14.024;2023-10-08T12:03:13;2.67;;;1.40;;
71959;SDS011;59832;51.146;14.024;2023-10-08T12:05:47;3.13;;;1.17;;
71959;SDS011;59832;51.146;14.024;2023-10-08T12:08:16;1.58;;;1.23;;
71959;SDS011;59832;51.146;14.024;2023-10-08T12:10:46;2.30;;;1.30;;
71959;SDS011;59832;51.146;14.024;2023-10-08T12:13:14;4.05;;;1.40;;
71959;SDS011;59832;51.146;14.024;2023-10-08T12:15:45;1.52;;;1.15;;
71959;SDS011;59832;51.146;14.024;2023-10-08T12:18:13;1.70;;;1.20;;
71959;SDS011;59832;51.146;14.024;2023-10-08T12:20:55;2.97;;;1.30;;
71959;SDS011;59832;51.146;14.024;2023-10-08T12:23:22;3.77;;;1.30;;
71959;SDS011;59832;51.146;14.024;2023-10-08T12:25:55;3.88;;;1.88;;
71959;SDS011;59832;51.146;14.024;2023-10-08T12:28:22;3.45;;;1.50;;
71959;SDS011;59832;51.146;14.024;2023-10-08T12:30:50;3.85;;;2.20;;
71959;SDS011;59832;51.146;14.024;2023-10-08T12:33:20;5.85;;;1.75;;
71959;SDS011;59832;51.146;14.024;2023-10-08T12:35:49;2.95;;;2.17;;
71959;SDS011;59832;51.146;14.024;2023-10-08T12:38:19;5.45;;;2.00;;
71959;SDS011;59832;51.146;14.024;2023-10-08T12:40:49;3.22;;;1.92;;
71959;SDS011;59832;51.146;14.024;2023-10-08T12:43:22;2.42;;;1.33;;
71959;SDS011;59832;51.146;14.024;2023-10-08T12:45:54;2.10;;;1.15;;
71959;SDS011;59832;51.146;14.024;2023-10-08T12:48:24;2.33;;;1.30;;
71959;SDS011;59832;51.146;14.024;2023-10-08T12:50:53;2.22;;;1.13;;
71959;SDS011;59832;51.146;14.024;2023-10-08T12:53:23;2.50;;;1.48;;
71959;SDS011;59832;51.146;14.024;2023-10-08T12:55:53;2.63;;;1.08;;
71959;SDS011;59832;51.146;14.024;2023-10-08T12:58:21;2.15;;;1.20;;
71959;SDS011;59832;51.146;14.024;2023-10-08T13:00:52;3.35;;;1.40;;
71959;SDS011;59832;51.146;14.024;2023-10-08T13:03:26;1.85;;;1.27;;
71959;SDS011;59832;51.146;14.024;2023-10-08T13:05:57;3.00;;;1.60;;
71959;SDS011;59832;51.146;14.024;2023-10-08T13:08:30;2.35;;;1.30;;
71959;SDS011;59832;51.146;14.024;2023-10-08T13:13:27;2.00;;;1.20;;
71959;SDS011;59832;51.146;14.024;2023-10-08T13:18:23;2.65;;;1.30;;
71959;SDS011;59832;51.146;14.024;2023-10-08T13:20:52;2.42;;;1.00;;
71959;SDS011;59832;51.146;14.024;2023-10-08T13:23:19;1.90;;;1.02;;
71959;SDS011;59832;51.146;14.024;2023-10-08T13:25:47;1.80;;;0.90;;
71959;SDS011;59832;51.146;14.024;2023-10-08T13:28:21;2.38;;;1.00;;
71959;SDS011;59832;51.146;14.024;2023-10-08T13:30:51;1.40;;;0.98;;
71959;SDS011;59832;51.146;14.024;2023-10-08T13:33:21;3.13;;;1.20;;
71959;SDS011;59832;51.146;14.024;2023-10-08T13:35:49;1.60;;;1.05;;
71959;SDS011;59832;51.146;14.024;2023-10-08T13:38:32;2.28;;;1.20;;
71959;SDS011;59832;51.146;14.024;2023-10-08T13:40:59;1.43;;;1.00;;
71959;SDS011;59832;51.146;14.024;2023-10-08T13:43:29;4.78;;;1.48;;
71959;SDS011;59832;51.146;14.024;2023-10-08T13:46:03;5.13;;;1.20;;
71959;SDS011;59832;51.146;14.024;2023-10-08T13:48:33;2.80;;;1.08;;
71959;SDS011;59832;51.146;14.024;2023-10-08T13:51:02;3.45;;;1.30;;
71959;SDS011;59832;51.146;14.024;2023-10-08T13:53:30;1.45;;;1.10;;
71959;SDS011;59832;51.146;14.024;2023-10-08T13:55:59;3.47;;;1.20;;
71959;SDS011;59832;51.146;14.024;2023-10-08T13:58:30;4.55;;;1.40;;
71959;SDS011;59832;51.146;14.024;2023-10-08T14:01:00;3.17;;;2.20;;
71959;SDS011;59832;51.146;14.024;2023-10-08T14:03:27;2.22;;;1.20;;
71959;SDS011;59832;51.146;14.024;2023-10-08T14:05:58;1.45;;;1.00;;
71959;SDS011;59832;51.146;14.024;2023-10-08T14:08:29;2.95;;;1.20;;
71959;SDS011;59832;51.146;14.024;2023-10-08T14:10:57;8.80;;;2.40;;
71959;SDS011;59832;51.146;14.024;2023-10-08T14:13:29;2.63;;;1.00;;
71959;SDS011;59832;51.146;14.024;2023-10-08T14:15:58;2.20;;;0.90;;
71959;SDS011;59832;51.146;14.024;2023-10-08T14:18:25;2.60;;;1.02;;
71959;SDS011;59832;51.146;14.024;2023-10-08T14:20:55;2.22;;;1.20;;
71959;SDS011;59832;51.146;14.024;2023-10-08T14:23:22;2.25;;;0.90;;
71959;SDS011;59832;51.146;14.024;2023-10-08T14:25:52;1.60;;;0.90;;
71959;SDS011;59832;51.146;14.024;2023-10-08T14:28:21;3.67;;;1.00;;
71959;SDS011;59832;51.146;14.024;2023-10-08T14:30:48;2.77;;;1.00;;
71959;SDS011;59832;51.146;14.024;2023-10-08T14:33:20;2.15;;;1.00;;
71959;SDS011;59832;51.146;14.024;2023-10-08T14:35:51;2.15;;;1.05;;
71959;SDS011;59832;51.146;14.024;2023-10-08T14:38:36;2.22;;;1.00;;
71959;SDS011;59832;51.146;14.024;2023-10-08T14:41:21;4.25;;;1.23;;
71959;SDS011;59832;51.146;14.024;2023-10-08T14:44:06;2.63;;;1.25;;
71959;SDS011;59832;51.146;14.024;2023-10-08T14:46:33;3.28;;;1.05;;
71959;SDS011;59832;51.146;14.024;2023-10-08T14:49:01;3.55;;;1.17;;
71959;SDS011;59832;51.146;14.024;2023-10-08T14:51:29;2.50;;;1.27;;
71959;SDS011;59832;51.146;14.024;2023-10-08T14:53:57;3.15;;;1.00;;
71959;SDS011;59832;51.146;14.024;2023-10-08T14:56:24;2.15;;;0.90;;
71959;SDS011;59832;51.146;14.024;2023-10-08T14:58:51;2.85;;;1.25;;
71959;SDS011;59832;51.146;14.024;2023-10-08T15:01:18;2.03;;;1.15;;
71959;SDS011;59832;51.146;14.024;2023-10-08T15:03:45;2.70;;;1.67;;
71959;SDS011;59832;51.146;14.024;2023-10-08T15:06:13;3.03;;;1.60;;
71959;SDS011;59832;51.146;14.024;2023-10-08T15:08:39;3.15;;;1.23;;
71959;SDS011;59832;51.146;14.024;2023-10-08T15:11:06;3.30;;;1.40;;
71959;SDS011;59832;51.146;14.024;2023-10-08T15:13:33;4.07;;;1.57;;
71959;SDS011;59832;51.146;14.024;2023-10-08T15:15:59;3.10;;;1.30;;
71959;SDS011;59832;51.146;14.024;2023-10-08T15:18:30;1.75;;;0.98;;